Nearby METAR Reports

 

LIBV - Gioia Del Colle, Italy
Distance from station: ZZO 15km
Updated: 21/10/2018 01:55
Gedeeltelijk bewolkt
Gedeeltelijk bewolkt
 Wind van NW
Wind: NW 15 km/h
Temperatuur: 15°C
Dauwpunt: 12°C
Vochtigheid: 82%
Barometer: 1019 hPa
Clouds: Gedeeltelijk bewolkt
Visibility: 7 km
2018/10/20 23:55 LIBV 202355Z 32008KT 7000 NSC 15/12 Q1019 RMK FEW FEW250 VIS MIN 7000 WIND THR32 3009KT WIND THR14 32008KT WHT
LIBD - Bari/Palese Macc, Italy
Distance from station: NNW 26km
Updated: 21/10/2018 02:20
Helder
Helder
 Wind van W
Wind: W 17 km/h
Temperatuur: 15°C
Dauwpunt: 13°C
Vochtigheid: 88%
Barometer: 1020 hPa
Overzicht: Helder
Visibility: greater than 10 km
2018/10/21 00:20 LIBD 210020Z 28009KT CAVOK 15/13 Q1020
LIBH - Marina Di Ginosa, Italy
Distance from station: Z 53km
Updated: 21/10/2018 01:55
Gedeeltelijk bewolkt
Gedeeltelijk bewolkt
 Wind van WNW
Wind: WNW 6 km/h
Temperatuur: 17°C
Dauwpunt: 14°C
Vochtigheid: 83%
Barometer: 1018 hPa
Clouds: Gedeeltelijk bewolkt
Visibility: 10 km
Cloud details: Gedeeltelijk bewolkt 762 m
2018/10/20 23:55 LIBH 202355Z 30003KT 9999 SCT025 17/14 Q1018 RMK SCT QUK / QUL / VIS MAR 10 KM VIS MIN 9999
 
LIBG - Grottaglie(Civ/A, Italy
Distance from station: ZO 61km
Updated: 20/10/2018 19:50
NOT Current
Helder
Helder
 Wind van N
Wind: N 17 km/h
Temperatuur: 17°C
Dauwpunt: 15°C
Vochtigheid: 88%
Barometer: 1018 hPa
Overzicht: Helder
Visibility: greater than 10 km
2018/10/20 17:50 LIBG 201750Z 01009KT CAVOK 17/15 Q1018
LIBR - Brindisi/Casale, Italy
Distance from station: OZO 96km
Updated: 21/10/2018 02:20
Few Clouds
Few Clouds
 Wind van W
Wind: W 28 km/h
Temperatuur: 18°C
Dauwpunt: 15°C
Vochtigheid: 83%
Barometer: 1018 hPa
Clouds: Few Clouds
Visibility: 10 km
Cloud details: Few Clouds 396 m
2018/10/21 00:20 LIBR 210020Z 28015KT 9999 FEW013 18/15 Q1018
LIBA - Amendola (it-Afb, Italy
Distance from station: NW 118km
Updated: 19/10/2018 22:55
NOT Current
Gedeeltelijk bewolkt
Gedeeltelijk bewolkt
 Wind van W
Wind: W 13 km/h
Temperatuur: 15°C
Dauwpunt: 15°C
Vochtigheid: 100%
Barometer: 1017 hPa
Clouds: Gedeeltelijk bewolkt
Visibility: 6 km
2018/10/19 20:55 LIBA 192055Z 28007KT 6000 NSC 15/15 Q1017 RMK SKC VIS MIN 6000 WIND THR11 28008KT WIND THR29 /////KT WHT
 
LIBF - Foggia/Gino Lisa, Italy
Distance from station: WNW 126km
Updated: 20/10/2018 17:50
NOT Current
Helder
Helder
 Wind van NNW
Wind: NNW 24 km/h
Temperatuur: 20°C
Dauwpunt: 13°C
Vochtigheid: 64%
Barometer: 1020 hPa
Overzicht: Helder
Visibility: greater than 10 km
2018/10/20 15:50 LIBF 201550Z 34013KT CAVOK 20/13 Q1020
LIBN - Lecce (it-Afb), Italy
Distance from station: ZO 132km
Updated: 21/10/2018 01:55
Helder
Helder
 Wind van NW
Wind: NW 15 km/h
Temperatuur: 16°C
Dauwpunt: 16°C
Vochtigheid: 100%
Barometer: 1018 hPa
Overzicht: Helder
Visibility: greater than 10 km
2018/10/20 23:55 LIBN 202355Z 32008KT CAVOK 16/16 Q1018 RMK SCT SCT200 VIS MIN 9999 WIND THR14 32008KT WIND THR32 32008KT BLU